createdAt,value
2024-01-05T00:00:58.256Z,65.91
2024-01-05T00:01:58.155Z,63.60
2024-01-05T00:02:58.182Z,64.86
2024-01-05T00:03:58.277Z,65.98
2024-01-05T00:04:58.163Z,65.34
2024-01-05T00:05:58.336Z,63.94
2024-01-05T00:06:58.221Z,63.96
2024-01-05T00:07:58.156Z,66.14
2024-01-05T00:08:58.151Z,63.82
2024-01-05T00:09:58.155Z,64.20
2024-01-05T00:10:58.152Z,63.17
2024-01-05T00:11:58.200Z,65.03
2024-01-05T00:12:58.151Z,63.45
2024-01-05T00:13:58.148Z,66.19
2024-01-05T00:14:58.205Z,63.28
2024-01-05T00:15:58.154Z,61.88
2024-01-05T00:16:58.162Z,66.33
2024-01-05T00:17:58.194Z,63.32
2024-01-05T00:18:58.433Z,65.21
2024-01-05T00:19:58.194Z,66.07
2024-01-05T00:20:58.191Z,63.07
2024-01-05T00:21:58.163Z,64.03
2024-01-05T00:22:58.154Z,65.56
2024-01-05T00:23:58.176Z,66.86
2024-01-05T00:24:58.173Z,64.70
2024-01-05T00:25:58.170Z,66.41
2024-01-05T00:26:58.168Z,64.44
2024-01-05T00:27:58.178Z,65.46
2024-01-05T00:28:58.161Z,64.50
2024-01-05T00:29:58.202Z,64.85
2024-01-05T00:30:58.214Z,66.81
2024-01-05T00:31:58.161Z,65.90
2024-01-05T00:32:58.261Z,64.56
2024-01-05T00:33:58.342Z,62.96
2024-01-05T00:34:58.172Z,64.70
2024-01-05T00:35:58.222Z,63.37
2024-01-05T00:36:58.165Z,64.73
2024-01-05T00:37:58.175Z,64.41
2024-01-05T00:38:58.237Z,65.46
2024-01-05T00:39:58.183Z,64.20
2024-01-05T00:40:58.260Z,65.56
2024-01-05T00:41:58.218Z,64.25
2024-01-05T00:42:58.182Z,67.43
2024-01-05T00:43:58.180Z,64.26
2024-01-05T00:44:58.208Z,66.92
2024-01-05T00:45:58.191Z,64.27
2024-01-05T00:46:58.194Z,65.38
2024-01-05T00:47:58.315Z,64.11
2024-01-05T00:48:58.273Z,66.18
2024-01-05T00:49:58.203Z,65.78
2024-01-05T00:50:58.197Z,64.24
2024-01-05T00:51:58.180Z,65.46
2024-01-05T00:52:58.174Z,63.16
2024-01-05T00:53:58.200Z,65.12
2024-01-05T00:54:58.170Z,64.99
2024-01-05T00:55:58.179Z,63.49
2024-01-05T00:56:58.217Z,65.28
2024-01-05T00:57:58.178Z,62.54
2024-01-05T00:58:58.326Z,62.38
2024-01-05T00:59:58.270Z,67.37
2024-01-05T01:00:58.370Z,64.95
2024-01-05T01:01:58.348Z,66.12
2024-01-05T01:02:58.471Z,63.58
2024-01-05T01:03:58.524Z,64.46
2024-01-05T01:04:58.502Z,65.94
2024-01-05T01:05:58.473Z,66.67
2024-01-05T01:06:58.496Z,67.40
2024-01-05T01:07:58.549Z,65.39
2024-01-05T01:08:58.634Z,64.84
2024-01-05T01:09:58.614Z,67.16
2024-01-05T01:10:58.672Z,62.87
2024-01-05T01:11:58.756Z,62.37
2024-01-05T01:12:58.723Z,67.80
2024-01-05T01:13:58.767Z,65.08
2024-01-05T01:14:58.846Z,65.52
2024-01-05T01:15:58.839Z,66.20
2024-01-05T01:16:58.876Z,64.90
2024-01-05T01:17:59.024Z,64.95
2024-01-05T01:18:59.032Z,64.67
2024-01-05T01:19:58.991Z,63.50
2024-01-05T01:20:59.050Z,61.77
2024-01-05T01:21:59.072Z,64.56
2024-01-05T01:22:59.107Z,63.52
2024-01-05T01:23:59.210Z,61.95
2024-01-05T01:24:59.222Z,64.17
2024-01-05T01:25:59.236Z,63.15
2024-01-05T01:26:59.280Z,62.47
2024-01-05T01:27:59.314Z,66.05
2024-01-05T01:28:59.348Z,63.38
2024-01-05T01:29:59.432Z,63.22
2024-01-05T01:30:59.536Z,65.15
2024-01-05T01:31:59.479Z,65.25
2024-01-05T01:32:59.603Z,63.27
2024-01-05T01:33:59.618Z,66.02
2024-01-05T01:34:59.593Z,63.56
2024-01-05T01:35:59.653Z,63.58
2024-01-05T01:36:59.661Z,63.83
2024-01-05T01:37:59.713Z,65.30
2024-01-05T01:38:59.756Z,67.12
2024-01-05T01:39:59.774Z,66.97
2024-01-05T01:40:59.826Z,62.95
2024-01-05T01:41:59.925Z,63.33
2024-01-05T01:42:59.995Z,64.76
2024-01-05T01:43:59.932Z,67.20
2024-01-05T01:44:59.981Z,64.12
2024-01-05T01:46:00.007Z,63.10
2024-01-05T01:47:00.057Z,63.64
2024-01-05T01:48:00.180Z,65.47
2024-01-05T01:49:00.210Z,64.54
2024-01-05T01:50:00.268Z,63.86
2024-01-05T01:51:00.271Z,66.02
2024-01-05T01:52:00.321Z,61.30
2024-01-05T01:53:00.277Z,61.22
2024-01-05T01:54:00.322Z,61.76
2024-01-05T01:55:00.357Z,62.57
2024-01-05T01:56:00.401Z,62.11
2024-01-05T01:57:00.480Z,64.87
2024-01-05T01:58:00.477Z,64.87
2024-01-05T01:59:00.528Z,62.78
2024-01-05T02:00:00.637Z,64.60
2024-01-05T02:01:00.628Z,63.04
2024-01-05T02:02:00.638Z,63.08
2024-01-05T02:03:00.743Z,61.92
2024-01-05T02:04:00.801Z,63.67
2024-01-05T02:05:00.888Z,62.23
2024-01-05T02:06:00.869Z,65.49
2024-01-05T02:07:00.842Z,62.47
2024-01-05T02:08:00.874Z,63.99
2024-01-05T02:09:00.951Z,62.54
2024-01-05T02:10:00.961Z,61.33
2024-01-05T02:11:01.012Z,62.01
2024-01-05T02:12:01.111Z,64.31
2024-01-05T02:13:01.091Z,60.95
2024-01-05T02:14:01.147Z,60.74
2024-01-05T02:15:01.261Z,60.54
2024-01-05T02:16:01.216Z,61.52
2024-01-05T02:17:01.333Z,63.86
2024-01-05T02:18:01.468Z,65.05
2024-01-05T02:19:01.491Z,63.45
2024-01-05T02:20:01.449Z,63.84
2024-01-05T02:21:01.474Z,63.10
2024-01-05T02:22:01.465Z,63.68
2024-01-05T02:23:01.489Z,63.79
2024-01-05T02:24:01.641Z,63.20
2024-01-05T02:25:01.672Z,62.42
2024-01-05T02:26:01.855Z,65.30
2024-01-05T02:27:01.741Z,64.76
2024-01-05T02:28:01.698Z,65.07
2024-01-05T02:29:01.733Z,64.53
2024-01-05T02:30:01.804Z,67.27
2024-01-05T02:31:01.912Z,64.82
2024-01-05T02:32:01.848Z,63.04
2024-01-05T02:33:01.998Z,62.89
2024-01-05T02:34:02.008Z,62.30
2024-01-05T02:35:02.017Z,63.82
2024-01-05T02:36:02.037Z,63.97
2024-01-05T02:37:02.028Z,62.77
2024-01-05T02:38:02.062Z,63.86
2024-01-05T02:39:02.131Z,62.88
2024-01-05T02:40:02.151Z,65.67
2024-01-05T02:41:02.178Z,64.65
2024-01-05T02:42:02.275Z,62.95
2024-01-05T02:43:02.253Z,63.81
2024-01-05T02:44:02.293Z,64.41
2024-01-05T02:45:02.387Z,64.25
2024-01-05T02:46:02.357Z,62.44
2024-01-05T02:47:02.400Z,64.94
2024-01-05T02:48:02.905Z,64.46
2024-01-05T02:49:02.640Z,63.06
2024-01-05T02:50:02.490Z,65.36
2024-01-05T02:51:02.565Z,64.17
2024-01-05T02:52:02.563Z,63.30
2024-01-05T02:53:02.576Z,63.56
2024-01-05T02:54:02.637Z,62.45
2024-01-05T02:55:02.649Z,67.29
2024-01-05T02:56:02.688Z,65.19
2024-01-05T02:57:02.764Z,62.28
2024-01-05T02:58:02.753Z,62.48
2024-01-05T02:59:02.794Z,62.26
2024-01-05T03:00:02.874Z,66.24
2024-01-05T03:01:02.900Z,63.05
2024-01-05T03:02:02.911Z,64.53
2024-01-05T03:03:02.997Z,62.47
2024-01-05T03:04:03.255Z,61.86
2024-01-05T03:05:03.072Z,62.00
2024-01-05T03:06:03.104Z,62.91
2024-01-05T03:07:03.117Z,66.72
2024-01-05T03:08:03.165Z,63.06
2024-01-05T03:09:03.242Z,61.72
2024-01-05T03:10:03.236Z,63.58
2024-01-05T03:11:03.282Z,62.40
2024-01-05T03:12:03.325Z,62.84
2024-01-05T03:13:03.362Z,62.03
2024-01-05T03:14:03.386Z,65.77
2024-01-05T03:15:03.483Z,64.29
2024-01-05T03:16:03.463Z,61.59
2024-01-05T03:17:03.508Z,61.22
2024-01-05T03:18:03.682Z,61.90
2024-01-05T03:19:03.769Z,61.67
2024-01-05T03:20:03.764Z,63.17
2024-01-05T03:21:03.691Z,59.91
2024-01-05T03:22:03.693Z,59.63
2024-01-05T03:23:03.747Z,62.29
2024-01-05T03:24:03.813Z,61.09
2024-01-05T03:25:03.818Z,62.70
2024-01-05T03:26:03.875Z,62.21
2024-01-05T03:27:03.947Z,61.72
2024-01-05T03:28:03.931Z,61.16
2024-01-05T03:29:03.968Z,64.53
2024-01-05T03:30:04.108Z,60.39
2024-01-05T03:31:04.252Z,62.01
2024-01-05T03:32:04.097Z,63.63
2024-01-05T03:33:04.232Z,62.68
2024-01-05T03:34:04.359Z,62.80
2024-01-05T03:35:04.272Z,63.02
2024-01-05T03:36:04.302Z,62.53
2024-01-05T03:37:04.329Z,64.98
2024-01-05T03:38:04.343Z,65.20
2024-01-05T03:39:04.415Z,63.54
2024-01-05T03:40:04.421Z,62.10
2024-01-05T03:41:04.468Z,64.12
2024-01-05T03:42:04.565Z,62.90
2024-01-05T03:43:04.557Z,60.66
2024-01-05T03:44:04.582Z,65.22
2024-01-05T03:45:04.696Z,60.93
2024-01-05T03:46:04.676Z,65.97
2024-01-05T03:47:04.721Z,62.41
2024-01-05T03:48:04.880Z,61.16
2024-01-05T03:49:04.898Z,63.28
2024-01-05T03:50:04.901Z,62.90
2024-01-05T03:51:04.938Z,63.26
2024-01-05T03:52:04.918Z,61.19
2024-01-05T03:53:04.963Z,61.58
2024-01-05T03:54:05.020Z,64.73
2024-01-05T03:55:05.041Z,64.51
2024-01-05T03:56:05.084Z,64.41
2024-01-05T03:57:05.162Z,60.96
2024-01-05T03:58:05.177Z,63.93
2024-01-05T03:59:05.224Z,64.02
2024-01-05T04:00:05.302Z,66.89
2024-01-05T04:01:05.325Z,61.85
2024-01-05T04:02:05.355Z,62.77
2024-01-05T04:03:05.610Z,62.20
2024-01-05T04:04:05.461Z,61.76
2024-01-05T04:05:05.540Z,63.13
2024-01-05T04:06:05.573Z,64.00
2024-01-05T04:07:05.556Z,63.60
2024-01-05T04:08:05.600Z,64.29
2024-01-05T04:09:05.694Z,62.17
2024-01-05T04:10:05.695Z,62.96
2024-01-05T04:11:05.737Z,62.73
2024-01-05T04:12:05.814Z,67.20
2024-01-05T04:13:05.822Z,64.31
2024-01-05T04:14:05.864Z,63.38
2024-01-05T04:15:05.948Z,64.49
2024-01-05T04:16:05.963Z,63.13
2024-01-05T04:17:06.004Z,65.49
2024-01-05T04:18:06.235Z,64.40
2024-01-05T04:19:06.166Z,64.10
2024-01-05T04:20:06.144Z,65.13
2024-01-05T04:21:06.195Z,65.26
2024-01-05T04:22:06.227Z,62.70
2024-01-05T04:23:06.262Z,63.62
2024-01-05T04:24:06.368Z,64.45
2024-01-05T04:25:06.357Z,63.13
2024-01-05T04:26:06.398Z,64.63
2024-01-05T04:27:06.460Z,62.02
2024-01-05T04:28:06.483Z,63.95
2024-01-05T04:29:06.524Z,61.57
2024-01-05T04:30:06.647Z,63.41
2024-01-05T04:31:06.673Z,61.81
2024-01-05T04:32:06.647Z,62.32
2024-01-05T04:33:06.894Z,64.28
2024-01-05T04:34:06.923Z,62.39
2024-01-05T04:35:06.756Z,62.40
2024-01-05T04:36:06.890Z,61.97
2024-01-05T04:37:06.880Z,62.13
2024-01-05T04:38:06.876Z,60.81
2024-01-05T04:39:06.934Z,62.98
2024-01-05T04:40:06.959Z,63.08
2024-01-05T04:41:07.003Z,63.57
2024-01-05T04:42:07.064Z,61.89
2024-01-05T04:43:07.073Z,62.07
2024-01-05T04:44:07.133Z,60.87
2024-01-05T04:45:07.216Z,63.39
2024-01-05T04:46:07.196Z,62.83
2024-01-05T04:47:07.244Z,64.16
2024-01-05T04:48:07.538Z,63.44
2024-01-05T04:49:07.422Z,63.84
2024-01-05T04:50:07.368Z,62.14
2024-01-05T04:51:07.499Z,61.82
2024-01-05T04:52:07.452Z,63.53
2024-01-05T04:53:07.494Z,64.39
2024-01-05T04:54:07.569Z,63.92
2024-01-05T04:55:07.586Z,66.29
2024-01-05T04:56:07.623Z,64.50
2024-01-05T04:57:07.682Z,61.95
2024-01-05T04:58:07.695Z,62.81
2024-01-05T04:59:07.756Z,62.08
2024-01-05T05:00:07.796Z,63.39
2024-01-05T05:01:07.872Z,63.20
2024-01-05T05:02:07.875Z,63.48
2024-01-05T05:03:07.956Z,64.87
2024-01-05T05:04:08.016Z,62.77
2024-01-05T05:05:08.050Z,61.88
2024-01-05T05:06:15.426Z,50.00
2024-01-05T05:07:15.417Z,50.00
2024-01-05T05:08:15.426Z,50.00
2024-01-05T05:09:15.537Z,50.00
2024-01-05T05:10:15.450Z,50.00
2024-01-05T05:11:15.459Z,52.79
2024-01-05T05:12:15.512Z,52.17
2024-01-05T05:13:15.490Z,50.32
2024-01-05T05:14:15.499Z,53.63
2024-01-05T05:15:15.541Z,52.73
2024-01-05T05:16:15.528Z,51.92
2024-01-05T05:17:15.558Z,53.33
2024-01-05T05:18:15.708Z,53.31
2024-01-05T05:19:15.697Z,55.53
2024-01-05T05:20:15.560Z,54.48
2024-01-05T05:21:15.623Z,55.26
2024-01-05T05:22:15.661Z,55.48
2024-01-05T05:23:15.636Z,54.81
2024-01-05T05:24:15.621Z,52.65
2024-01-05T05:25:15.707Z,50.63
2024-01-05T05:26:15.647Z,54.97
2024-01-05T05:27:15.676Z,52.89
2024-01-05T05:28:15.655Z,53.07
2024-01-05T05:29:15.649Z,53.31
2024-01-05T05:30:15.756Z,54.54
2024-01-05T05:31:15.859Z,54.27
2024-01-05T05:32:15.701Z,53.13
2024-01-05T05:33:15.777Z,52.16
2024-01-05T05:34:15.789Z,54.92
2024-01-05T05:35:15.733Z,53.54
2024-01-05T05:36:15.790Z,54.86
2024-01-05T05:37:15.751Z,54.96
2024-01-05T05:38:15.790Z,52.20
2024-01-05T05:39:15.794Z,53.86
2024-01-05T05:40:15.757Z,53.78
2024-01-05T05:41:15.766Z,55.00
2024-01-05T05:42:15.800Z,53.49
2024-01-05T05:43:15.780Z,55.76
2024-01-05T05:44:15.779Z,54.46
2024-01-05T05:45:15.820Z,55.01
2024-01-05T05:46:15.805Z,53.51
2024-01-05T05:47:15.823Z,53.19
2024-01-05T05:48:16.001Z,52.49
2024-01-05T05:49:15.892Z,53.83
2024-01-05T05:50:15.904Z,54.67
2024-01-05T05:51:15.884Z,58.23
2024-01-05T05:52:15.876Z,53.71
2024-01-05T05:53:15.889Z,54.48
2024-01-05T05:54:15.929Z,54.98
2024-01-05T05:55:15.963Z,53.92
2024-01-05T05:56:16.051Z,54.44
2024-01-05T05:57:16.085Z,54.52
2024-01-05T05:58:16.089Z,55.05
2024-01-05T05:59:16.126Z,54.35
2024-01-05T06:00:16.185Z,56.07
2024-01-05T06:01:16.255Z,53.40
2024-01-05T06:02:16.259Z,54.61
2024-01-05T06:03:16.356Z,54.66
2024-01-05T06:04:16.399Z,54.82
2024-01-05T06:05:16.347Z,56.94
2024-01-05T06:06:16.520Z,55.19
2024-01-05T06:07:16.433Z,53.46
2024-01-05T06:08:16.479Z,54.51
2024-01-05T06:09:16.613Z,55.51
2024-01-05T06:10:16.583Z,56.55
2024-01-05T06:11:16.617Z,54.16
2024-01-05T06:12:16.636Z,56.33
2024-01-05T06:13:16.663Z,54.07
2024-01-05T06:14:16.707Z,56.05
2024-01-05T06:15:16.808Z,53.66
2024-01-05T06:16:16.821Z,55.64
2024-01-05T06:17:16.819Z,55.24
2024-01-05T06:18:17.024Z,55.62
2024-01-05T06:19:16.994Z,55.22
2024-01-05T06:20:16.940Z,54.23
2024-01-05T06:21:16.989Z,54.54
2024-01-05T06:22:17.022Z,54.11
2024-01-05T06:23:17.334Z,53.31
2024-01-05T06:24:17.128Z,55.51
2024-01-05T06:25:17.119Z,55.34
2024-01-05T06:26:17.150Z,53.43
2024-01-05T06:27:22.306Z,56.50
2024-01-05T06:28:18.198Z,56.52
2024-01-05T06:29:17.212Z,56.42
2024-01-05T06:30:17.275Z,55.71
2024-01-05T06:31:17.340Z,55.40
2024-01-05T06:32:17.220Z,55.66
2024-01-05T06:33:17.284Z,55.30
2024-01-05T06:34:17.342Z,55.19
2024-01-05T06:35:17.272Z,57.86
2024-01-05T06:36:17.289Z,54.40
2024-01-05T06:37:17.272Z,54.72
2024-01-05T06:38:17.267Z,56.04
2024-01-05T06:39:17.375Z,55.24
2024-01-05T06:40:17.283Z,54.78
2024-01-05T06:41:17.294Z,55.62
2024-01-05T06:42:17.351Z,53.18
2024-01-05T06:43:17.315Z,56.22
2024-01-05T06:44:17.311Z,54.73
2024-01-05T06:45:17.367Z,54.58
2024-01-05T06:46:17.344Z,55.04
2024-01-05T06:47:17.376Z,58.83
2024-01-05T06:48:17.564Z,54.28
2024-01-05T06:49:17.616Z,54.45
2024-01-05T06:50:17.559Z,56.00
2024-01-05T06:51:17.583Z,55.66
2024-01-05T06:52:17.540Z,56.45
2024-01-05T06:53:17.568Z,55.70
2024-01-05T06:54:17.630Z,53.99
2024-01-05T06:55:17.648Z,55.72
2024-01-05T06:56:17.672Z,55.56
2024-01-05T06:57:17.777Z,55.19
2024-01-05T06:58:17.738Z,55.41
2024-01-05T06:59:17.776Z,55.08
2024-01-05T07:00:17.876Z,54.31
2024-01-05T07:01:17.884Z,56.41
2024-01-05T07:02:17.881Z,55.49
2024-01-05T07:03:17.975Z,56.91
2024-01-05T07:04:17.955Z,55.05
2024-01-05T07:05:18.052Z,55.91
2024-01-05T07:06:18.080Z,56.57
2024-01-05T07:07:18.074Z,56.53
2024-01-05T07:08:18.122Z,57.06
2024-01-05T07:09:18.183Z,55.50
2024-01-05T07:10:18.186Z,56.58
2024-01-05T07:11:18.223Z,57.15
2024-01-05T07:12:18.275Z,56.38
2024-01-05T07:13:18.295Z,55.35
2024-01-05T07:14:18.340Z,53.87
2024-01-05T07:15:18.410Z,56.38
2024-01-05T07:16:18.408Z,55.03
2024-01-05T07:17:18.451Z,54.30
2024-01-05T07:18:18.570Z,56.76
2024-01-05T07:19:18.621Z,57.27
2024-01-05T07:20:18.553Z,54.75
2024-01-05T07:21:18.704Z,56.20
2024-01-05T07:22:18.622Z,54.61
2024-01-05T07:23:18.682Z,55.69
2024-01-05T07:24:18.717Z,57.71
2024-01-05T07:25:18.733Z,55.90
2024-01-05T07:26:18.765Z,56.48
2024-01-05T07:27:18.934Z,56.58
2024-01-05T07:28:18.835Z,58.07
2024-01-05T07:29:18.881Z,55.00
2024-01-05T07:30:19.011Z,55.57
2024-01-05T07:31:19.017Z,58.34
2024-01-05T07:32:18.973Z,56.42
2024-01-05T07:33:19.322Z,56.79
2024-01-05T07:34:19.138Z,57.28
2024-01-05T07:35:19.074Z,55.48
2024-01-05T07:36:19.214Z,57.23
2024-01-05T07:37:19.160Z,56.89
2024-01-05T07:38:19.166Z,57.23
2024-01-05T07:39:19.261Z,55.70
2024-01-05T07:40:19.244Z,56.65
2024-01-05T07:41:19.288Z,54.75
2024-01-05T07:42:19.350Z,56.64
2024-01-05T07:43:19.343Z,58.41
2024-01-05T07:44:19.384Z,56.52
2024-01-05T07:45:19.484Z,56.24
2024-01-05T07:46:19.430Z,56.19
2024-01-05T07:47:19.521Z,54.75
2024-01-05T07:48:19.582Z,55.45
2024-01-05T07:49:19.697Z,57.67
2024-01-05T07:50:19.561Z,56.68
2024-01-05T07:51:19.649Z,57.71
2024-01-05T07:52:19.617Z,55.97
2024-01-05T07:53:19.654Z,58.29
2024-01-05T07:54:19.700Z,56.61
2024-01-05T07:55:19.724Z,57.88
2024-01-05T07:56:19.752Z,56.79
2024-01-05T07:57:19.893Z,57.96
2024-01-05T07:58:19.842Z,55.24
2024-01-05T07:59:19.836Z,57.04
2024-01-05T08:00:19.960Z,56.18
2024-01-05T08:01:19.919Z,55.99
2024-01-05T08:02:19.928Z,59.45
2024-01-05T08:03:20.025Z,58.69
2024-01-05T08:04:20.054Z,60.30
2024-01-05T08:05:20.055Z,57.96
2024-01-05T08:06:20.222Z,57.02
2024-01-05T08:07:20.076Z,56.77
2024-01-05T08:08:20.150Z,56.81
2024-01-05T08:09:20.165Z,57.75
2024-01-05T08:10:20.158Z,57.86
2024-01-05T08:11:20.186Z,57.27
2024-01-05T08:12:20.248Z,54.91
2024-01-05T08:13:20.251Z,58.68
2024-01-05T08:14:20.266Z,57.54
2024-01-05T08:15:20.320Z,57.57
2024-01-05T08:16:20.354Z,57.96
2024-01-05T08:17:20.361Z,57.53
2024-01-05T08:18:20.496Z,59.33
2024-01-05T08:19:20.469Z,61.07
2024-01-05T08:20:20.460Z,59.92
2024-01-05T08:21:20.538Z,59.39
2024-01-05T08:22:20.533Z,57.56
2024-01-05T08:23:20.547Z,58.46
2024-01-05T08:24:20.634Z,56.73
2024-01-05T08:25:22.108Z,59.43
2024-01-05T08:26:20.652Z,55.00
2024-01-05T08:27:20.700Z,59.79
2024-01-05T08:28:20.676Z,57.54
2024-01-05T08:29:20.681Z,57.61
2024-01-05T08:30:20.825Z,59.74
2024-01-05T08:31:20.825Z,56.20
2024-01-05T08:32:20.736Z,56.57
2024-01-05T08:33:20.818Z,59.72
2024-01-05T08:34:20.877Z,59.08
2024-01-05T08:35:20.809Z,59.57
2024-01-05T08:36:21.591Z,57.92
2024-01-05T08:37:20.802Z,57.13
2024-01-05T08:38:20.815Z,59.53
2024-01-05T08:39:21.602Z,56.49
2024-01-05T08:40:20.848Z,58.05
2024-01-05T08:41:20.852Z,57.96
2024-01-05T08:42:20.874Z,57.01
2024-01-05T08:43:20.922Z,60.02
2024-01-05T08:44:20.894Z,56.40
2024-01-05T08:45:20.953Z,57.29
2024-01-05T08:46:20.925Z,58.45
2024-01-05T08:47:20.951Z,55.24
2024-01-05T08:48:21.051Z,59.95
2024-01-05T08:49:21.100Z,59.98
2024-01-05T08:50:21.024Z,58.83
2024-01-05T08:51:21.167Z,58.90
2024-01-05T08:52:21.016Z,60.29
2024-01-05T08:53:21.033Z,56.99
2024-01-05T08:54:21.081Z,60.43
2024-01-05T08:55:21.084Z,55.81
2024-01-05T08:56:21.096Z,58.49
2024-01-05T08:57:21.180Z,58.89
2024-01-05T08:58:21.134Z,57.94
2024-01-05T08:59:21.141Z,57.40
2024-01-05T09:00:21.176Z,57.24
2024-01-05T09:01:21.934Z,58.90
2024-01-05T09:02:21.191Z,59.89
2024-01-05T09:03:21.246Z,57.38
2024-01-05T09:04:21.233Z,57.31
2024-01-05T09:05:21.243Z,58.46
2024-01-05T09:06:21.247Z,59.80
2024-01-05T09:07:21.232Z,59.85
2024-01-05T09:08:21.240Z,58.57
2024-01-05T09:09:21.271Z,59.71
2024-01-05T09:10:21.276Z,59.41
2024-01-05T09:11:21.300Z,60.71
2024-01-05T09:12:21.366Z,58.20
2024-01-05T09:13:21.317Z,58.08
2024-01-05T09:14:21.338Z,58.73
2024-01-05T09:15:21.355Z,58.64
2024-01-05T09:16:21.369Z,58.36
2024-01-05T09:17:21.383Z,60.45
2024-01-05T09:18:21.571Z,58.33
2024-01-05T09:19:23.684Z,58.94
2024-01-05T09:20:21.400Z,59.02
2024-01-05T09:21:21.499Z,58.76
2024-01-05T09:22:21.427Z,59.46
2024-01-05T09:23:21.447Z,60.36
2024-01-05T09:24:21.520Z,60.85
2024-01-05T09:25:21.467Z,60.37
2024-01-05T09:26:21.482Z,58.80
2024-01-05T09:27:21.524Z,59.94
2024-01-05T09:28:21.508Z,57.52
2024-01-05T09:29:21.518Z,58.46
2024-01-05T09:30:21.624Z,61.15
2024-01-05T09:31:21.746Z,60.56
2024-01-05T09:32:21.590Z,58.46
2024-01-05T09:33:21.732Z,60.84
2024-01-05T09:34:21.701Z,58.75
2024-01-05T09:35:21.580Z,57.36
2024-01-05T09:36:21.622Z,60.80
2024-01-05T09:37:21.597Z,59.93
2024-01-05T09:38:21.614Z,59.64
2024-01-05T09:39:21.677Z,59.26
2024-01-05T09:40:21.659Z,59.37
2024-01-05T09:41:21.657Z,61.07
2024-01-05T09:42:21.716Z,60.67
2024-01-05T09:43:21.680Z,59.57
2024-01-05T09:44:21.705Z,59.03
2024-01-05T09:45:21.718Z,58.65
2024-01-05T09:46:21.740Z,60.67
2024-01-05T09:47:21.748Z,59.21
2024-01-05T09:48:23.622Z,60.65
2024-01-05T09:49:22.882Z,59.38
2024-01-05T09:50:21.836Z,60.72
2024-01-05T09:51:21.839Z,60.55
2024-01-05T09:52:21.790Z,60.97
2024-01-05T09:53:21.826Z,60.10
2024-01-05T09:54:21.877Z,60.03
2024-01-05T09:55:21.841Z,62.58
2024-01-05T09:56:21.854Z,61.41
2024-01-05T09:57:21.963Z,59.72
2024-01-05T09:58:21.891Z,58.46
2024-01-05T09:59:21.898Z,58.95
2024-01-05T10:00:22.036Z,62.24
2024-01-05T10:01:21.991Z,61.49
2024-01-05T10:02:21.950Z,61.85
2024-01-05T10:03:22.044Z,61.45
2024-01-05T10:04:22.041Z,61.56
2024-01-05T10:05:22.066Z,60.24
2024-01-05T10:06:22.104Z,60.06
2024-01-05T10:07:22.035Z,63.20
2024-01-05T10:08:22.056Z,61.08
2024-01-05T10:09:22.084Z,65.07
2024-01-05T10:10:22.096Z,62.22
2024-01-05T10:11:22.125Z,57.87
2024-01-05T10:12:22.232Z,61.67
2024-01-05T10:13:22.168Z,59.53
2024-01-05T10:14:22.175Z,64.95
2024-01-05T10:15:22.224Z,63.20
2024-01-05T10:16:22.225Z,62.76
2024-01-05T10:17:22.243Z,61.74
2024-01-05T10:18:25.582Z,65.00
2024-01-05T10:19:22.372Z,61.80
2024-01-05T10:20:22.301Z,62.37
2024-01-05T10:21:22.401Z,62.08
2024-01-05T10:22:22.368Z,61.32
2024-01-05T10:23:22.364Z,63.88
2024-01-05T10:24:24.232Z,61.52
2024-01-05T10:25:22.409Z,62.92
2024-01-05T10:26:22.469Z,63.64
2024-01-05T10:27:22.550Z,63.28
2024-01-05T10:28:22.559Z,63.42
2024-01-05T10:29:22.524Z,62.73
2024-01-05T10:30:22.675Z,63.92
2024-01-05T10:31:22.744Z,63.31
2024-01-05T10:32:22.614Z,63.62
2024-01-05T10:33:22.772Z,62.30
2024-01-05T10:34:22.735Z,61.23
2024-01-05T10:35:22.691Z,61.91
2024-01-05T10:36:22.783Z,63.97
2024-01-05T10:37:22.778Z,63.42
2024-01-05T10:38:22.796Z,64.80
2024-01-05T10:39:22.867Z,63.62
2024-01-05T10:40:23.545Z,65.52
2024-01-05T10:41:22.913Z,62.35
2024-01-05T10:42:23.421Z,61.51
2024-01-05T10:43:23.619Z,64.16
2024-01-05T10:44:22.955Z,63.70
2024-01-05T10:45:23.039Z,63.13
2024-01-05T10:46:23.003Z,60.87
2024-01-05T10:47:23.095Z,64.21
2024-01-05T10:48:23.200Z,62.62
2024-01-05T10:49:23.183Z,61.29
2024-01-05T10:50:23.095Z,64.39
2024-01-05T10:51:23.199Z,63.17
2024-01-05T10:52:23.134Z,63.33
2024-01-05T10:53:23.166Z,62.76
2024-01-05T10:54:23.246Z,61.83
2024-01-05T10:55:23.207Z,66.84
2024-01-05T10:56:23.223Z,64.28
2024-01-05T10:57:23.288Z,65.14
2024-01-05T10:58:23.272Z,68.12
2024-01-05T10:59:23.306Z,65.38
2024-01-05T11:00:23.349Z,64.21
2024-01-05T11:01:23.436Z,65.72
2024-01-05T11:02:23.755Z,65.63
2024-01-05T11:03:23.457Z,65.74
2024-01-05T11:04:23.482Z,65.04
2024-01-05T11:05:23.564Z,64.85
2024-01-05T11:06:23.582Z,62.44
2024-01-05T11:07:23.582Z,64.88
2024-01-05T11:08:23.567Z,64.14
2024-01-05T11:09:23.623Z,65.63
2024-01-05T11:10:23.668Z,65.22
2024-01-05T11:11:23.655Z,64.78
2024-01-05T11:12:23.697Z,65.05
2024-01-05T11:13:23.707Z,65.12
2024-01-05T11:14:23.781Z,68.14
2024-01-05T11:15:23.909Z,66.68
2024-01-05T11:16:23.787Z,63.92
2024-01-05T11:17:23.914Z,65.11
2024-01-05T11:18:24.044Z,63.01
2024-01-05T11:19:24.093Z,62.82
2024-01-05T11:20:24.094Z,63.33
2024-01-05T11:21:24.240Z,65.69
2024-01-05T11:22:24.290Z,66.90
2024-01-05T11:23:24.346Z,63.34
2024-01-05T11:24:24.431Z,64.76
2024-01-05T11:25:24.511Z,64.29
2024-01-05T11:26:24.585Z,65.42
2024-01-05T11:27:24.669Z,64.51
2024-01-05T11:28:24.782Z,64.04
2024-01-05T11:29:24.801Z,65.81
2024-01-05T11:30:24.954Z,62.02
2024-01-05T11:31:25.016Z,65.55
2024-01-05T11:32:25.156Z,63.53
2024-01-05T11:33:30.026Z,65.94
2024-01-05T11:34:26.308Z,65.99
2024-01-05T11:35:25.159Z,65.99
2024-01-05T11:36:25.197Z,64.16
2024-01-05T11:37:25.166Z,66.00
2024-01-05T11:38:25.190Z,67.35
2024-01-05T11:39:25.239Z,66.65
2024-01-05T11:40:25.199Z,66.34
2024-01-05T11:41:25.205Z,66.31
2024-01-05T11:42:25.340Z,63.62
2024-01-05T11:43:25.364Z,64.69
2024-01-05T11:44:25.445Z,66.28
2024-01-05T11:45:25.558Z,69.13
2024-01-05T11:46:26.254Z,65.61
2024-01-05T11:47:25.737Z,64.38
2024-01-05T11:48:25.861Z,61.83
2024-01-05T11:49:26.693Z,66.80
2024-01-05T11:50:25.946Z,62.61
2024-01-05T11:51:26.085Z,66.74
2024-01-05T11:52:26.094Z,65.29
2024-01-05T11:53:26.162Z,63.27
2024-01-05T11:54:26.300Z,63.63
2024-01-05T11:55:26.309Z,66.60
2024-01-05T11:56:26.397Z,64.49
2024-01-05T11:57:26.522Z,65.83
2024-01-05T11:58:26.522Z,66.76
2024-01-05T11:59:26.601Z,63.34
2024-01-05T12:00:26.731Z,65.25
2024-01-05T12:01:26.796Z,66.79
2024-01-05T12:02:26.884Z,66.84
2024-01-05T12:03:27.108Z,66.36
2024-01-05T12:04:27.031Z,65.45
2024-01-05T12:05:27.103Z,66.37
2024-01-05T12:06:27.226Z,65.24
2024-01-05T12:07:27.242Z,63.09
2024-01-05T12:08:27.349Z,64.26
2024-01-05T12:09:27.459Z,65.65
2024-01-05T12:10:27.479Z,65.67
2024-01-05T12:11:27.562Z,66.93
2024-01-05T12:12:27.699Z,64.80
2024-01-05T12:13:27.790Z,64.53
2024-01-05T12:14:27.809Z,65.00
2024-01-05T12:15:27.903Z,66.21
2024-01-05T12:16:27.957Z,66.55
2024-01-05T12:17:28.041Z,66.90
2024-01-05T12:18:34.607Z,65.42
2024-01-05T12:19:29.218Z,65.48
2024-01-05T12:20:28.156Z,65.69
2024-01-05T12:21:28.169Z,66.47
2024-01-05T12:22:28.156Z,66.44
2024-01-05T12:23:28.177Z,66.74
2024-01-05T12:24:28.226Z,65.05
2024-01-05T12:25:28.218Z,67.59
2024-01-05T12:26:28.222Z,67.72
2024-01-05T12:27:28.324Z,63.94
2024-01-05T12:28:28.358Z,65.19
2024-01-05T12:29:28.439Z,66.95
2024-01-05T12:30:28.556Z,65.78
2024-01-05T12:31:28.720Z,66.99
2024-01-05T12:32:28.671Z,67.18
2024-01-05T12:33:29.109Z,64.42
2024-01-05T12:34:28.859Z,63.96
2024-01-05T12:35:28.936Z,69.69
2024-01-05T12:36:29.960Z,66.67
2024-01-05T12:37:29.070Z,63.65
2024-01-05T12:38:29.138Z,67.63
2024-01-05T12:39:29.247Z,65.51
2024-01-05T12:40:29.297Z,67.88
2024-01-05T12:41:29.383Z,69.83
2024-01-05T12:42:29.500Z,67.85
2024-01-05T12:43:29.548Z,68.39
2024-01-05T12:44:29.620Z,66.45
2024-01-05T12:45:29.792Z,67.95
2024-01-05T12:46:29.786Z,65.67
2024-01-05T12:47:29.894Z,66.17
2024-01-05T12:48:30.065Z,66.90
2024-01-05T12:49:30.119Z,63.61
2024-01-05T12:50:30.100Z,67.78
2024-01-05T12:51:30.211Z,67.13
2024-01-05T12:52:32.598Z,65.02
2024-01-05T12:53:30.273Z,65.08